Time;durP1;ratioP1;P1;durP2;ratioP2;P2;SDS_P1;SDS_P2;PMS_P1;PMS_P2;Temp;Humidity;BMP_temperature;BMP_pressure;BME280_temperature;BME280_humidity;BME280_pressure;Samples;Min_cycle;Max_cycle;Signal;HPM_P1;HPM_P2
2022/08/08 00:02:26;;;;;;;8.10;4.70;;;14.50;89.30;;;;;;5037258;28;20052;-62
2022/08/08 00:05:17;;;;;;;9.25;5.28;;;14.40;90.00;;;;;;5030210;28;20081;-62
2022/08/08 00:07:51;;;;;;;10.70;4.15;;;14.30;90.30;;;;;;5023307;28;20026;-60
2022/08/08 00:10:27;;;;;;;6.53;4.40;;;14.30;90.40;;;;;;5001414;28;20136;-65
2022/08/08 00:13:03;;;;;;;9.30;5.03;;;14.20;90.60;;;;;;5028583;28;20436;-66
2022/08/08 00:15:40;;;;;;;9.95;5.38;;;14.20;90.90;;;;;;5031192;28;20022;-67
2022/08/08 00:18:23;;;;;;;7.50;4.65;;;14.20;90.90;;;;;;5030262;28;20021;-65
2022/08/08 00:20:57;;;;;;;7.97;5.15;;;14.10;90.90;;;;;;5027586;28;20056;-65
2022/08/08 00:24:03;;;;;;;9.70;5.32;;;14.10;91.30;;;;;;5020729;28;20057;-66
2022/08/08 00:26:40;;;;;;;7.97;4.47;;;14.00;91.60;;;;;;4997784;28;20155;-63
2022/08/08 00:29:33;;;;;;;10.40;5.82;;;14.00;91.60;;;;;;5013476;28;20532;-65
2022/08/08 00:32:08;;;;;;;9.32;4.95;;;13.90;91.90;;;;;;4992287;28;20026;-67
2022/08/08 00:35:10;;;;;;;8.02;5.40;;;14.00;92.20;;;;;;5011919;28;20084;-63
2022/08/08 00:37:57;;;;;;;9.10;5.00;;;13.90;92.30;;;;;;5027449;28;20549;-68
2022/08/08 00:40:29;;;;;;;9.20;5.30;;;13.80;92.40;;;;;;5038608;28;20095;-62
2022/08/08 00:43:32;;;;;;;8.77;5.00;;;13.80;92.50;;;;;;5030675;28;20029;-62
2022/08/08 00:46:16;;;;;;;7.63;4.93;;;13.80;92.60;;;;;;5030289;28;20481;-67
2022/08/08 00:49:00;;;;;;;9.00;5.10;;;13.80;92.60;;;;;;5031678;28;20021;-64
2022/08/08 00:51:35;;;;;;;8.93;5.15;;;13.80;92.70;;;;;;5030697;28;20493;-66
2022/08/08 00:54:19;;;;;;;8.82;5.05;;;13.90;92.70;;;;;;5031238;28;20025;-66
2022/08/08 00:57:22;;;;;;;9.30;5.00;;;13.90;92.70;;;;;;5031177;28;20474;-68
2022/08/08 01:00:06;;;;;;;8.82;5.55;;;13.90;92.90;;;;;;5030065;28;20118;-68
2022/08/08 01:03:06;;;;;;;8.43;4.78;;;13.90;93.00;;;;;;5031203;28;20843;-68
2022/08/08 01:06:23;;;;;;;8.40;5.13;;;13.80;92.90;;;;;;5012831;28;20052;-69
2022/08/08 01:09:01;;;;;;;8.30;5.57;;;13.80;93.30;;;;;;4931551;29;20035;-65
2022/08/08 01:12:14;;;;;;;7.15;4.68;;;13.70;93.30;;;;;;4931975;29;20028;-66
2022/08/08 01:15:18;;;;;;;7.82;5.40;;;13.70;93.40;;;;;;5027351;28;20419;-68
2022/08/08 01:18:02;;;;;;;8.10;5.28;;;13.60;93.60;;;;;;4915947;29;20214;-68
2022/08/08 01:20:39;;;;;;;9.43;5.38;;;13.50;93.70;;;;;;4931198;29;20111;-67
2022/08/08 01:23:17;;;;;;;8.40;5.30;;;13.50;93.80;;;;;;4980593;28;20049;-65
2022/08/08 01:26:20;;;;;;;9.32;5.30;;;13.40;93.90;;;;;;5013280;28;20041;-66
2022/08/08 01:29:14;;;;;;;10.10;5.95;;;13.40;94.00;;;;;;5030618;28;20052;-66
2022/08/08 01:31:58;;;;;;;8.88;5.50;;;13.40;94.00;;;;;;5033601;28;20490;-67
2022/08/08 01:34:42;;;;;;;9.10;5.25;;;13.40;94.00;;;;;;5034054;28;21016;-65
2022/08/08 01:37:34;;;;;;;9.65;5.60;;;13.40;94.10;;;;;;5033940;28;20168;-68
2022/08/08 01:40:37;;;;;;;8.68;5.30;;;13.40;94.00;;;;;;5034375;28;20025;-68
2022/08/08 01:43:24;;;;;;;8.18;5.78;;;13.50;94.10;;;;;;5034016;28;20041;-69
2022/08/08 01:46:27;;;;;;;9.90;5.90;;;13.40;94.30;;;;;;5034061;28;20029;-68
2022/08/08 01:49:20;;;;;;;10.55;5.90;;;13.30;94.40;;;;;;5033279;28;20048;-67
2022/08/08 01:51:59;;;;;;;8.93;5.40;;;13.20;94.60;;;;;;5034505;28;20021;-66
2022/08/08 01:54:48;;;;;;;9.73;5.10;;;13.20;94.70;;;;;;5033833;28;20026;-67
2022/08/08 01:57:17;;;;;;;8.68;5.43;;;13.10;94.80;;;;;;5016568;28;20029;-66
2022/08/08 02:00:11;;;;;;;7.05;4.43;;;13.10;94.90;;;;;;5034132;28;20436;-65
2022/08/08 02:03:14;;;;;;;12.43;5.80;;;13.10;94.80;;;;;;5033155;28;20025;-67
2022/08/08 02:06:07;;;;;;;8.20;5.45;;;13.10;94.90;;;;;;5034045;28;20021;-68
2022/08/08 02:09:07;;;;;;;7.78;5.07;;;13.10;94.80;;;;;;5016342;28;20101;-68
2022/08/08 02:11:36;;;;;;;10.32;5.10;;;13.10;95.00;;;;;;4993181;28;20037;-69
2022/08/08 02:14:29;;;;;;;10.48;5.60;;;13.10;95.10;;;;;;5033621;28;20022;-68
2022/08/08 02:17:15;;;;;;;8.15;5.22;;;13.10;95.20;;;;;;5033059;28;20030;-67
2022/08/08 02:19:57;;;;;;;10.70;5.80;;;13.00;95.10;;;;;;5033663;28;20025;-64
2022/08/08 02:23:00;;;;;;;10.73;6.03;;;13.00;95.20;;;;;;5033513;28;20033;-63
2022/08/08 02:25:35;;;;;;;7.55;5.20;;;13.00;95.20;;;;;;5033577;28;20108;-63
2022/08/08 02:28:31;;;;;;;8.52;5.95;;;13.00;95.40;;;;;;5033035;28;20111;-62
2022/08/08 02:31:06;;;;;;;9.68;6.38;;;13.00;95.60;;;;;;5032574;28;20056;-66
2022/08/08 02:33:40;;;;;;;11.85;5.82;;;12.90;95.90;;;;;;5033375;28;20053;-68
2022/08/08 02:36:21;;;;;;;9.27;5.80;;;12.80;95.90;;;;;;5032732;28;20056;-65
2022/08/08 02:38:54;;;;;;;8.77;5.45;;;12.70;95.80;;;;;;5033194;28;20104;-69
2022/08/08 02:41:43;;;;;;;7.97;5.18;;;12.60;95.80;;;;;;5032564;28;20072;-65
2022/08/08 02:45:03;;;;;;;9.00;5.07;;;12.60;95.90;;;;;;5031874;28;20049;-64
2022/08/08 02:47:49;;;;;;;7.43;5.00;;;12.50;96.00;;;;;;4971803;28;20023;-61
2022/08/08 02:50:18;;;;;;;7.47;5.07;;;12.40;96.20;;;;;;5028631;28;20029;-66
2022/08/08 02:53:09;;;;;;;11.05;5.60;;;12.30;96.40;;;;;;5037486;28;20021;-63
2022/08/08 02:55:41;;;;;;;11.98;5.97;;;12.30;96.20;;;;;;5052778;28;20035;-64
2022/08/08 02:58:28;;;;;;;9.20;5.65;;;12.30;96.60;;;;;;5051685;28;20032;-62
2022/08/08 03:01:40;;;;;;;9.32;6.10;;;12.20;96.80;;;;;;5052343;28;20048;-66
2022/08/08 03:04:18;;;;;;;11.88;6.60;;;12.20;97.00;;;;;;5032613;28;20045;-64
2022/08/08 03:07:15;;;;;;;9.70;5.55;;;12.20;97.00;;;;;;5031299;28;20053;-63
2022/08/08 03:10:03;;;;;;;11.52;6.40;;;12.10;96.90;;;;;;5032601;28;20033;-65
2022/08/08 03:12:40;;;;;;;10.57;6.32;;;12.20;97.00;;;;;;5011102;28;20133;-63
2022/08/08 03:15:51;;;;;;;10.70;5.80;;;12.10;97.10;;;;;;5012739;28;20134;-65
2022/08/08 03:18:39;;;;;;;11.85;6.40;;;12.10;97.10;;;;;;5012668;28;20057;-65
2022/08/08 03:21:05;;;;;;;8.70;5.55;;;12.10;97.20;;;;;;5024668;28;20034;-65
2022/08/08 03:23:31;;;;;;;11.77;6.40;;;12.00;97.20;;;;;;5015371;28;20049;-66
2022/08/08 03:25:57;;;;;;;9.13;5.32;;;12.00;97.40;;;;;;5011968;28;20052;-63
2022/08/08 03:28:36;;;;;;;10.10;6.22;;;12.00;97.30;;;;;;5011889;28;20057;-66
2022/08/08 03:33:16;;;;;;;10.50;6.25;;;12.00;97.50;;;;;;5012569;28;20027;-66
2022/08/08 03:33:48;;;;;;;9.30;5.68;;;12.00;97.40;;;;;;5011490;28;20042;-63
2022/08/08 03:36:14;;;;;;;8.57;5.78;;;12.00;97.20;;;;;;5011785;28;20049;-62
2022/08/08 03:38:39;;;;;;;9.05;5.38;;;11.90;97.30;;;;;;5012502;28;20041;-61
2022/08/08 03:41:05;;;;;;;9.15;5.82;;;11.90;97.30;;;;;;5011221;28;20026;-60
2022/08/08 03:43:31;;;;;;;10.98;6.32;;;11.80;97.40;;;;;;5012175;28;20034;-61
2022/08/08 03:45:57;;;;;;;9.57;6.32;;;11.80;97.50;;;;;;5012228;28;20478;-62
2022/08/08 03:48:22;;;;;;;10.90;6.00;;;11.80;97.50;;;;;;5011657;28;20462;-62
2022/08/08 03:50:49;;;;;;;9.48;5.90;;;11.80;97.60;;;;;;5027338;28;20025;-61
2022/08/08 03:53:17;;;;;;;10.52;6.25;;;11.80;97.60;;;;;;5011081;28;20481;-61
2022/08/08 03:55:47;;;;;;;11.25;6.50;;;11.80;97.80;;;;;;5011368;28;20080;-60
2022/08/08 03:58:23;;;;;;;10.82;5.85;;;11.70;97.70;;;;;;5011818;28;20018;-61
2022/08/08 04:00:55;;;;;;;9.90;6.30;;;11.70;97.80;;;;;;5011824;28;20439;-61
2022/08/08 04:03:22;;;;;;;8.23;5.78;;;11.70;97.90;;;;;;5011075;28;20038;-61
2022/08/08 04:05:48;;;;;;;8.68;5.72;;;11.70;97.90;;;;;;5011773;28;20117;-61
2022/08/08 04:08:22;;;;;;;10.32;6.18;;;11.70;98.00;;;;;;5012095;28;20086;-61
2022/08/08 04:10:49;;;;;;;9.88;5.70;;;11.70;98.00;;;;;;5011608;28;20062;-61
2022/08/08 04:13:16;;;;;;;8.82;5.63;;;11.70;98.00;;;;;;5011586;28;20357;-61
2022/08/08 04:15:42;;;;;;;8.85;5.63;;;11.80;98.10;;;;;;5010895;28;20117;-62
2022/08/08 04:18:08;;;;;;;11.15;6.32;;;11.80;98.10;;;;;;5011532;28;20389;-61
2022/08/08 04:20:34;;;;;;;9.98;6.05;;;11.90;98.10;;;;;;5011818;28;20544;-61
2022/08/08 04:22:59;;;;;;;9.18;6.10;;;11.90;98.00;;;;;;4992869;28;20029;-61
2022/08/08 04:25:25;;;;;;;8.98;5.28;;;12.00;98.00;;;;;;5011576;28;20071;-60
2022/08/08 04:27:51;;;;;;;11.43;6.45;;;11.90;97.90;;;;;;5011470;28;20115;-60
2022/08/08 04:30:17;;;;;;;8.93;5.80;;;12.00;98.10;;;;;;5011200;28;20018;-62
2022/08/08 04:32:42;;;;;;;9.32;5.32;;;12.00;98.10;;;;;;5011375;28;20030;-62
2022/08/08 04:35:08;;;;;;;9.48;5.60;;;11.90;98.10;;;;;;5011581;28;20105;-61
2022/08/08 04:37:34;;;;;;;11.05;5.93;;;11.90;98.00;;;;;;4992851;28;20061;-60
2022/08/08 04:39:59;;;;;;;10.13;5.75;;;12.00;98.10;;;;;;5026134;28;20089;-61
2022/08/08 04:42:26;;;;;;;9.70;5.82;;;12.00;98.10;;;;;;5011670;28;20030;-67
2022/08/08 04:44:54;;;;;;;11.13;6.38;;;12.00;98.10;;;;;;4993144;28;20363;-67
2022/08/08 04:47:20;;;;;;;12.57;6.63;;;12.00;98.10;;;;;;5011414;28;20105;-67
2022/08/08 04:49:46;;;;;;;9.50;6.43;;;12.10;98.40;;;;;;4993813;28;20052;-62
2022/08/08 04:52:12;;;;;;;10.05;6.20;;;12.10;98.40;;;;;;5010582;28;20054;-64
2022/08/08 04:54:37;;;;;;;9.65;6.03;;;12.10;98.60;;;;;;5011562;28;20065;-67
2022/08/08 04:57:03;;;;;;;9.82;6.32;;;12.10;98.40;;;;;;5011031;28;20022;-62
2022/08/08 04:59:29;;;;;;;11.00;6.00;;;12.20;98.40;;;;;;4993168;28;20029;-62
2022/08/08 05:01:54;;;;;;;11.00;6.10;;;12.30;98.30;;;;;;5011168;28;20022;-62
2022/08/08 05:04:20;;;;;;;11.82;6.15;;;12.30;98.20;;;;;;5011373;28;20030;-61
2022/08/08 05:06:47;;;;;;;11.23;6.53;;;12.40;98.20;;;;;;5013857;28;20072;-61
2022/08/08 05:09:12;;;;;;;8.85;5.68;;;12.50;98.10;;;;;;5014757;28;20542;-61
2022/08/08 05:11:38;;;;;;;11.27;5.97;;;12.50;98.00;;;;;;5014233;28;20108;-60
2022/08/08 05:14:04;;;;;;;10.32;6.45;;;12.60;98.00;;;;;;5014382;28;20113;-61
2022/08/08 05:16:30;;;;;;;15.02;6.70;;;12.70;98.40;;;;;;5014672;28;20061;-64
2022/08/08 05:18:56;;;;;;;10.15;6.13;;;12.80;98.10;;;;;;5024620;28;20552;-66
2022/08/08 05:21:21;;;;;;;10.88;6.40;;;12.90;98.00;;;;;;5034287;28;20021;-61
2022/08/08 05:23:47;;;;;;;11.02;6.25;;;12.90;98.00;;;;;;5033898;28;20033;-62
2022/08/08 05:26:13;;;;;;;9.95;6.05;;;13.00;97.90;;;;;;5033770;28;20059;-61
2022/08/08 05:28:38;;;;;;;8.75;5.40;;;13.10;97.80;;;;;;5034273;28;20109;-61
2022/08/08 05:31:04;;;;;;;11.85;6.53;;;13.20;97.80;;;;;;5026562;28;20033;-63
2022/08/08 05:33:30;;;;;;;13.32;6.47;;;13.30;97.80;;;;;;5031918;28;20401;-61
2022/08/08 05:36:00;;;;;;;11.40;6.57;;;13.30;97.80;;;;;;5033553;28;20040;-61
2022/08/08 05:38:28;;;;;;;9.27;6.63;;;13.40;97.70;;;;;;5032779;28;20027;-61
2022/08/08 05:40:57;;;;;;;15.55;7.22;;;13.60;97.80;;;;;;5013607;28;20132;-61
2022/08/08 05:43:28;;;;;;;11.65;7.03;;;13.60;97.80;;;;;;5032698;28;20095;-62
2022/08/08 05:45:59;;;;;;;12.27;7.00;;;13.70;97.80;;;;;;5033385;28;20033;-61
2022/08/08 05:48:25;;;;;;;8.73;5.93;;;13.80;97.80;;;;;;5040213;28;20116;-61
2022/08/08 05:50:51;;;;;;;11.70;7.22;;;13.90;97.90;;;;;;5026768;28;20108;-61
2022/08/08 05:53:17;;;;;;;12.55;6.80;;;14.00;97.70;;;;;;5035855;28;20119;-61
2022/08/08 05:55:44;;;;;;;12.00;6.88;;;14.10;97.60;;;;;;5024430;28;20537;-61
2022/08/08 05:58:12;;;;;;;10.55;6.78;;;14.20;97.60;;;;;;5045985;28;20508;-64
2022/08/08 06:00:38;;;;;;;12.10;6.30;;;14.20;97.50;;;;;;5026720;28;20032;-61
2022/08/08 06:03:10;;;;;;;12.77;6.72;;;14.40;97.50;;;;;;5012972;28;20065;-61
2022/08/08 06:05:49;;;;;;;9.73;5.70;;;14.50;97.50;;;;;;5013951;28;20022;-61
2022/08/08 06:08:27;;;;;;;9.98;5.95;;;14.60;97.30;;;;;;5016303;28;20494;-61
2022/08/08 06:10:55;;;;;;;11.35;6.75;;;14.70;97.20;;;;;;5048629;28;20155;-60
2022/08/08 06:13:21;;;;;;;9.43;6.43;;;14.80;97.20;;;;;;5048601;28;20131;-61
2022/08/08 06:15:50;;;;;;;9.80;5.88;;;14.80;97.10;;;;;;5032680;28;20103;-61
2022/08/08 06:18:16;;;;;;;9.68;6.03;;;15.00;97.00;;;;;;5033526;28;20022;-61
2022/08/08 06:20:43;;;;;;;16.98;7.00;;;15.10;97.00;;;;;;5016742;28;20419;-61
2022/08/08 06:23:09;;;;;;;11.45;6.32;;;15.10;96.80;;;;;;5011134;28;20076;-61
2022/08/08 06:25:39;;;;;;;9.43;5.93;;;15.30;96.70;;;;;;5014473;28;20033;-61
2022/08/08 06:28:13;;;;;;;9.55;5.40;;;15.30;96.50;;;;;;5017553;28;20124;-61
2022/08/08 06:30:41;;;;;;;11.40;5.30;;;15.40;96.40;;;;;;5012614;28;20033;-61
2022/08/08 06:33:10;;;;;;;9.90;5.40;;;15.50;96.20;;;;;;5026559;28;20243;-60
2022/08/08 06:35:45;;;;;;;10.27;5.60;;;15.60;96.10;;;;;;5013117;28;20062;-60
2022/08/08 06:38:20;;;;;;;8.77;5.18;;;15.70;95.90;;;;;;4996564;28;20690;-60
2022/08/08 06:40:50;;;;;;;8.10;4.88;;;15.80;95.70;;;;;;5021531;28;20040;-60
2022/08/08 06:43:20;;;;;;;7.28;4.85;;;15.90;95.50;;;;;;5026956;28;20033;-61
2022/08/08 06:45:46;;;;;;;9.77;5.43;;;16.00;95.40;;;;;;5013612;28;20503;-62
2022/08/08 06:48:13;;;;;;;10.20;4.82;;;16.10;95.20;;;;;;5019774;28;20471;-61
2022/08/08 06:50:39;;;;;;;8.90;4.20;;;16.20;95.10;;;;;;5035183;28;20018;-61
2022/08/08 06:53:07;;;;;;;6.10;4.15;;;16.30;94.90;;;;;;5027459;28;20025;-64
2022/08/08 06:55:34;;;;;;;8.65;4.60;;;16.40;94.70;;;;;;5017397;28;20025;-60
2022/08/08 06:58:00;;;;;;;5.85;3.55;;;16.50;94.50;;;;;;5023149;28;20069;-66
2022/08/08 07:00:30;;;;;;;7.40;3.35;;;16.60;94.20;;;;;;5031676;28;20083;-67
2022/08/08 07:02:59;;;;;;;7.68;3.20;;;16.70;93.90;;;;;;5025630;28;20037;-66
2022/08/08 07:05:25;;;;;;;5.50;3.28;;;16.80;93.60;;;;;;5030778;28;20025;-66
2022/08/08 07:08:06;;;;;;;6.25;2.90;;;16.90;93.30;;;;;;5032305;28;20437;-67
2022/08/08 07:10:36;;;;;;;;;;;16.90;93.10;;;;;;5030218;28;20461;-61
2022/08/08 07:13:08;;;;;;;10.02;3.25;;;17.00;92.60;;;;;;5017291;28;19949;-62
2022/08/08 07:15:39;;;;;;;;;;;17.10;92.40;;;;;;5012467;28;20026;-62
2022/08/08 07:18:08;;;;;;;5.15;3.38;;;17.30;92.30;;;;;;5019382;28;19936;-61
2022/08/08 07:20:43;;;;;;;5.78;3.15;;;17.30;92.10;;;;;;5031440;28;20022;-61
2022/08/08 07:23:22;;;;;;;5.68;3.25;;;17.40;91.90;;;;;;5031527;28;20456;-62
2022/08/08 07:25:50;;;;;;;6.07;2.97;;;17.50;91.70;;;;;;5014708;28;20534;-62
2022/08/08 07:28:18;;;;;;;4.68;2.53;;;17.60;91.40;;;;;;5027478;28;20026;-62
2022/08/08 07:30:45;;;;;;;6.80;3.03;;;17.70;91.20;;;;;;5004050;28;20026;-63
2022/08/08 07:33:11;;;;;;;5.00;2.90;;;17.80;90.90;;;;;;5010968;28;20029;-63
2022/08/08 07:35:38;;;;;;;7.22;3.00;;;17.80;90.60;;;;;;5031629;28;20089;-64
2022/08/08 07:38:05;;;;;;;6.85;3.00;;;17.90;90.20;;;;;;5031323;28;20042;-64
2022/08/08 07:40:31;;;;;;;5.85;2.53;;;17.90;90.10;;;;;;5013319;28;20417;-63
2022/08/08 07:42:57;;;;;;;4.32;1.83;;;17.90;89.80;;;;;;5031621;28;20335;-63
2022/08/08 07:45:23;;;;;;;3.20;1.88;;;18.10;88.60;;;;;;5031860;28;20045;-63
2022/08/08 07:47:49;;;;;;;3.78;2.15;;;18.10;87.50;;;;;;5030819;28;20389;-63
2022/08/08 07:50:15;;;;;;;3.55;2.10;;;18.20;85.60;;;;;;5031594;28;20029;-64
2022/08/08 07:52:45;;;;;;;5.60;2.20;;;18.30;85.40;;;;;;5031541;28;20032;-63
2022/08/08 07:55:27;;;;;;;8.05;2.13;;;18.40;85.10;;;;;;5012895;28;20136;-64
2022/08/08 07:58:14;;;;;;;3.97;1.95;;;18.50;84.70;;;;;;5031336;28;20158;-63
2022/08/08 08:00:49;;;;;;;3.50;1.85;;;18.50;84.50;;;;;;5030927;28;20018;-65
2022/08/08 08:03:40;;;;;;;4.22;2.08;;;18.70;84.70;;;;;;5031536;28;20049;-64
2022/08/08 08:06:10;;;;;;;4.05;2.03;;;18.80;83.00;;;;;;5013279;28;20378;-64
2022/08/08 08:09:00;;;;;;;6.15;2.10;;;18.90;82.50;;;;;;5030535;28;20031;-63
2022/08/08 08:11:30;;;;;;;5.10;2.15;;;19.00;82.20;;;;;;5003224;28;20036;-63
2022/08/08 08:14:02;;;;;;;2.83;1.55;;;19.20;82.10;;;;;;5031040;28;20474;-63
2022/08/08 08:16:31;;;;;;;3.15;1.42;;;19.20;81.60;;;;;;5012755;28;20034;-64
2022/08/08 08:19:00;;;;;;;4.43;1.48;;;19.30;80.30;;;;;;5031141;28;20044;-64
2022/08/08 08:21:30;;;;;;;3.22;1.60;;;19.40;79.20;;;;;;5031353;28;20462;-64
2022/08/08 08:23:55;;;;;;;4.07;1.43;;;19.50;77.80;;;;;;5012874;28;20044;-64
2022/08/08 08:26:21;;;;;;;2.03;1.30;;;19.50;77.00;;;;;;5031190;28;20037;-65
2022/08/08 08:28:47;;;;;;;4.00;1.50;;;19.50;76.20;;;;;;5012700;28;20025;-63
2022/08/08 08:31:13;;;;;;;2.25;1.40;;;19.60;76.20;;;;;;5030752;28;20112;-64
2022/08/08 08:33:39;;;;;;;3.28;1.38;;;19.60;75.40;;;;;;5030712;28;20018;-64
2022/08/08 08:36:12;;;;;;;3.47;1.30;;;19.70;75.40;;;;;;5029857;28;20045;-64
2022/08/08 08:38:39;;;;;;;2.35;1.23;;;19.70;75.00;;;;;;5031129;28;20088;-63
2022/08/08 08:41:05;;;;;;;4.57;1.70;;;19.90;75.10;;;;;;5014993;28;20025;-66
2022/08/08 08:43:33;;;;;;;2.08;1.63;;;19.90;73.60;;;;;;5034351;28;20095;-65
2022/08/08 08:45:59;;;;;;;4.15;1.65;;;20.00;73.50;;;;;;5035032;28;20052;-66
2022/08/08 08:48:25;;;;;;;3.40;1.40;;;20.00;73.80;;;;;;5034858;28;20065;-65
2022/08/08 08:50:53;;;;;;;3.03;1.30;;;20.00;73.10;;;;;;5033910;28;20049;-66
2022/08/08 08:53:19;;;;;;;3.15;1.25;;;20.00;72.90;;;;;;5017010;28;20052;-65
2022/08/08 08:55:45;;;;;;;2.38;1.27;;;20.20;72.40;;;;;;5034628;28;20028;-66
2022/08/08 08:58:26;;;;;;;3.30;1.55;;;20.30;72.00;;;;;;5016296;28;20357;-64
2022/08/08 09:00:53;;;;;;;3.25;1.20;;;20.30;71.70;;;;;;5034668;28;20047;-65
2022/08/08 09:03:21;;;;;;;2.08;1.35;;;20.40;71.00;;;;;;5016798;28;20061;-64
2022/08/08 09:05:49;;;;;;;2.90;1.10;;;20.50;70.00;;;;;;5033768;28;20029;-63
2022/08/08 09:08:17;;;;;;;2.13;1.00;;;20.60;70.30;;;;;;5016599;28;20089;-64
2022/08/08 09:10:43;;;;;;;3.08;1.27;;;20.80;68.90;;;;;;5033987;28;20017;-64
2022/08/08 09:13:11;;;;;;;1.75;1.45;;;20.90;68.70;;;;;;5034004;28;21043;-67
2022/08/08 09:15:37;;;;;;;4.05;1.20;;;20.90;68.90;;;;;;5034527;28;20387;-67
2022/08/08 09:18:03;;;;;;;2.65;1.10;;;20.90;68.30;;;;;;5032886;28;20382;-67
2022/08/08 09:20:30;;;;;;;2.67;1.40;;;20.90;68.70;;;;;;5034408;28;20022;-67
2022/08/08 09:22:56;;;;;;;3.72;1.45;;;21.10;68.70;;;;;;5015955;28;20075;-67
2022/08/08 09:25:22;;;;;;;2.30;0.98;;;21.10;68.30;;;;;;5033731;28;20025;-68
2022/08/08 09:27:47;;;;;;;1.75;1.10;;;21.10;66.90;;;;;;5034005;28;20162;-67
2022/08/08 09:30:15;;;;;;;2.42;1.05;;;21.10;66.90;;;;;;5034329;28;20032;-67
2022/08/08 09:32:52;;;;;;;1.75;1.20;;;21.20;65.90;;;;;;5033423;28;20524;-67
2022/08/08 09:35:23;;;;;;;2.67;1.75;;;21.20;64.60;;;;;;5034221;28;20026;-64
2022/08/08 09:37:52;;;;;;;1.38;1.00;;;21.10;64.90;;;;;;5032551;28;20041;-66
2022/08/08 09:40:24;;;;;;;2.08;0.85;;;21.00;64.90;;;;;;5031997;28;20025;-64
2022/08/08 09:43:07;;;;;;;2.08;1.00;;;20.90;65.40;;;;;;5014677;28;20482;-65
2022/08/08 09:46:01;;;;;;;1.75;1.00;;;20.80;64.80;;;;;;5014772;28;20029;-67
2022/08/08 09:48:32;;;;;;;1.63;1.10;;;21.00;65.50;;;;;;5032997;28;20033;-65
2022/08/08 09:50:58;;;;;;;3.13;1.30;;;21.20;66.10;;;;;;5031917;28;20022;-65
2022/08/08 09:53:38;;;;;;;3.33;0.80;;;21.40;64.60;;;;;;5031707;28;20086;-65
2022/08/08 09:56:06;;;;;;;1.00;0.80;;;21.50;64.30;;;;;;5032038;28;20045;-64
2022/08/08 09:58:43;;;;;;;1.80;1.00;;;21.50;62.30;;;;;;5014877;28;20025;-66
2022/08/08 10:01:09;;;;;;;2.10;1.00;;;21.70;62.60;;;;;;5031310;28;20535;-64
2022/08/08 10:03:36;;;;;;;1.77;0.80;;;21.80;61.90;;;;;;5031979;28;20138;-64
2022/08/08 10:06:16;;;;;;;2.22;0.90;;;21.80;62.10;;;;;;5032001;28;20049;-64
2022/08/08 10:08:49;;;;;;;2.55;1.42;;;21.80;62.00;;;;;;5031580;28;20022;-64
2022/08/08 10:11:20;;;;;;;1.75;0.80;;;22.00;61.20;;;;;;5030617;28;20030;-65
2022/08/08 10:14:00;;;;;;;2.30;1.15;;;22.30;60.20;;;;;;5031924;28;20029;-64
2022/08/08 10:16:42;;;;;;;1.67;1.10;;;22.50;59.10;;;;;;5031952;28;20331;-64
2022/08/08 10:19:12;;;;;;;5.03;1.42;;;22.80;59.30;;;;;;5031852;28;20022;-65
2022/08/08 10:21:38;;;;;;;1.00;0.70;;;22.90;58.30;;;;;;5013645;28;20109;-64
2022/08/08 10:24:05;;;;;;;3.25;1.05;;;22.80;57.70;;;;;;5013516;28;20025;-64
2022/08/08 10:26:38;;;;;;;1.85;0.75;;;22.70;57.60;;;;;;5032101;28;20080;-64
2022/08/08 10:29:10;;;;;;;1.95;0.80;;;22.70;58.20;;;;;;5030924;28;20022;-64
2022/08/08 10:34:27;;;;;;;1.88;0.93;;;23.20;57.20;;;;;;5031796;28;20437;-64
2022/08/08 10:36:53;;;;;;;1.52;0.85;;;23.30;56.10;;;;;;4994633;28;1058447;-65
2022/08/08 10:39:26;;;;;;;3.67;0.88;;;23.30;56.50;;;;;;5032775;28;20033;-67
2022/08/08 10:42:00;;;;;;;4.35;1.15;;;23.30;56.60;;;;;;5032630;28;20470;-67
2022/08/08 10:44:33;;;;;;;2.63;0.70;;;23.20;57.00;;;;;;5032065;28;20060;-68
2022/08/08 10:47:19;;;;;;;1.85;0.80;;;23.20;56.80;;;;;;5032334;28;20047;-67
2022/08/08 10:49:53;;;;;;;2.80;0.90;;;23.10;57.20;;;;;;5031909;28;20038;-66
2022/08/08 10:52:33;;;;;;;1.88;0.80;;;23.10;57.20;;;;;;5032402;28;20544;-65
2022/08/08 10:55:00;;;;;;;0.95;0.77;;;23.20;56.40;;;;;;5032356;28;20026;-65
2022/08/08 10:57:26;;;;;;;0.95;0.60;;;23.30;56.80;;;;;;5031617;28;20021;-67
2022/08/08 10:59:53;;;;;;;1.70;0.70;;;23.40;56.40;;;;;;5014362;28;20025;-65
2022/08/08 11:02:40;;;;;;;2.22;1.00;;;23.60;56.60;;;;;;5031905;28;20022;-64
2022/08/08 11:05:10;;;;;;;1.95;0.65;;;23.70;56.10;;;;;;5031467;28;20060;-65
2022/08/08 11:07:41;;;;;;;2.58;0.90;;;23.70;54.40;;;;;;5032288;28;20049;-65
2022/08/08 11:10:15;;;;;;;1.98;1.00;;;23.70;52.90;;;;;;5032039;28;20021;-64
2022/08/08 11:12:51;;;;;;;1.27;0.85;;;23.70;53.20;;;;;;5031482;28;20040;-64
2022/08/08 11:15:19;;;;;;;1.88;0.80;;;23.80;53.60;;;;;;5032185;28;20032;-64
2022/08/08 11:17:46;;;;;;;0.65;0.65;;;24.00;53.50;;;;;;5031528;28;20021;-64
2022/08/08 11:20:16;;;;;;;2.00;1.00;;;24.10;53.30;;;;;;5031775;28;20033;-65
2022/08/08 11:22:44;;;;;;;1.35;0.80;;;24.10;52.90;;;;;;5013952;28;20450;-64
2022/08/08 11:25:10;;;;;;;2.72;0.90;;;24.00;53.30;;;;;;5030692;28;20466;-65
2022/08/08 11:27:37;;;;;;;1.23;0.98;;;23.80;54.50;;;;;;5031990;28;20044;-67
2022/08/08 11:30:08;;;;;;;2.25;0.80;;;23.70;54.80;;;;;;5031267;28;20044;-67
2022/08/08 11:32:39;;;;;;;1.10;0.82;;;23.70;55.10;;;;;;5031372;28;20382;-68
2022/08/08 11:35:10;;;;;;;1.55;0.95;;;23.70;55.40;;;;;;5013650;28;20052;-66
2022/08/08 11:37:38;;;;;;;1.63;1.00;;;23.80;54.70;;;;;;5031892;28;20045;-67
2022/08/08 11:40:07;;;;;;;2.13;1.08;;;23.60;54.50;;;;;;5031281;28;20028;-67
2022/08/08 11:42:33;;;;;;;1.52;1.10;;;23.40;54.50;;;;;;5031769;28;20564;-67
2022/08/08 11:44:59;;;;;;;1.00;0.60;;;23.20;54.60;;;;;;5013931;28;20022;-68
2022/08/08 11:47:25;;;;;;;3.05;0.80;;;23.10;55.20;;;;;;5013236;28;20032;-68
2022/08/08 11:49:53;;;;;;;1.50;0.80;;;23.10;55.80;;;;;;5031636;28;20075;-65
2022/08/08 11:52:20;;;;;;;1.45;0.68;;;23.30;55.50;;;;;;5031688;28;20105;-69
2022/08/08 11:54:45;;;;;;;2.63;1.00;;;23.60;54.70;;;;;;5031189;28;20093;-68
2022/08/08 11:57:26;;;;;;;3.70;1.08;;;23.90;54.20;;;;;;5031137;28;20029;-65
2022/08/08 12:00:00;;;;;;;1.83;0.88;;;24.20;52.90;;;;;;5030458;28;20439;-65
2022/08/08 12:02:28;;;;;;;2.40;1.08;;;24.20;52.20;;;;;;5031189;28;20034;-65
2022/08/08 12:05:10;;;;;;;1.50;0.70;;;24.20;51.00;;;;;;5031339;28;20098;-65
2022/08/08 12:07:51;;;;;;;2.85;1.10;;;24.20;51.20;;;;;;5030839;28;20053;-67
2022/08/08 12:10:19;;;;;;;4.57;0.60;;;24.20;50.50;;;;;;5031482;28;20068;-66
2022/08/08 12:12:46;;;;;;;1.58;0.60;;;24.00;50.70;;;;;;5031101;28;20079;-65
2022/08/08 12:15:30;;;;;;;1.50;0.60;;;23.90;51.60;;;;;;5030504;28;20022;-66
2022/08/08 12:17:56;;;;;;;1.65;0.68;;;23.80;52.30;;;;;;5030698;28;20018;-65
2022/08/08 12:20:22;;;;;;;1.13;0.70;;;23.80;52.50;;;;;;5031286;28;20083;-65
2022/08/08 12:22:50;;;;;;;1.33;0.70;;;23.80;52.70;;;;;;5030500;28;20025;-66
2022/08/08 12:25:25;;;;;;;2.72;0.70;;;23.80;52.90;;;;;;5031314;28;20049;-64
2022/08/08 12:27:52;;;;;;;1.35;0.85;;;23.90;52.90;;;;;;5030534;28;20167;-65
2022/08/08 12:30:29;;;;;;;3.92;0.95;;;24.10;53.30;;;;;;5030878;28;20025;-65
2022/08/08 12:32:58;;;;;;;2.95;0.60;;;24.10;52.60;;;;;;5030900;28;20025;-65
2022/08/08 12:35:25;;;;;;;2.67;0.80;;;24.00;52.50;;;;;;5030535;28;20024;-66
2022/08/08 12:38:07;;;;;;;1.75;0.98;;;23.90;52.60;;;;;;5030851;28;20052;-65
2022/08/08 12:41:10;;;;;;;1.20;0.70;;;23.80;53.10;;;;;;5031335;28;20041;-65
2022/08/08 12:43:36;;;;;;;1.67;0.80;;;23.80;53.60;;;;;;5020992;28;20124;-65
2022/08/08 12:46:13;;;;;;;2.60;0.75;;;23.70;53.50;;;;;;5030623;28;20113;-65
2022/08/08 12:48:38;;;;;;;1.98;0.90;;;23.80;53.70;;;;;;5031528;28;20044;-65
2022/08/08 12:51:05;;;;;;;1.40;0.88;;;23.90;53.20;;;;;;5012124;28;20014;-65
2022/08/08 12:53:32;;;;;;;1.00;0.70;;;24.20;52.30;;;;;;5013222;28;20319;-66
2022/08/08 12:56:06;;;;;;;2.65;0.90;;;24.50;51.50;;;;;;5030163;28;20028;-65
2022/08/08 12:58:54;;;;;;;1.70;0.57;;;24.70;50.80;;;;;;5030967;28;20022;-67
2022/08/08 13:01:19;;;;;;;0.70;0.70;;;24.80;50.70;;;;;;5030895;28;20021;-64
2022/08/08 13:03:49;;;;;;;2.22;0.82;;;24.90;50.20;;;;;;5030280;28;20120;-65
2022/08/08 13:06:19;;;;;;;2.85;0.75;;;24.80;50.20;;;;;;5013416;28;20028;-64
2022/08/08 13:08:50;;;;;;;1.17;0.75;;;24.50;50.10;;;;;;5031068;28;20065;-64
2022/08/08 13:11:21;;;;;;;0.70;0.70;;;24.30;49.90;;;;;;5030464;28;20132;-65
2022/08/08 13:14:06;;;;;;;3.00;0.90;;;24.10;50.20;;;;;;5030633;28;20473;-65
2022/08/08 13:16:33;;;;;;;1.40;0.70;;;24.10;50.80;;;;;;5029073;28;20049;-64
2022/08/08 13:19:02;;;;;;;2.38;0.60;;;24.20;49.50;;;;;;5024263;28;20445;-63
2022/08/08 13:21:30;;;;;;;1.00;0.65;;;24.50;48.90;;;;;;5013086;28;20418;-63
2022/08/08 13:23:56;;;;;;;0.57;0.52;;;24.60;48.20;;;;;;5012432;28;20060;-63